| time (UTC) | temp F | wind direction | speed MPH | gust MPH | rain 1hr in | rain 24hr in | rain mn in | humidity % | barometer mb |
| 20260503213604 | 73 | 239 | 1.0 | 4.0 | 0.00 | 0.00 | 0.00 | 29 | 1010.9 |
| 20260503213106 | 73 | 228 | 1.0 | 4.0 | 0.00 | 0.00 | 0.00 | 30 | 1010.9 |
| 20260503212858 | 73 | 283 | 1.0 | 6.0 | 0.00 | 0.00 | 0.00 | 31 | 1010.9 |
| 20260503212222 | 72 | 256 | 1.0 | 6.0 | 0.00 | 0.00 | 0.00 | 30 | 1011.2 |
| 20260503212156 | 72 | 282 | 1.0 | 6.0 | 0.00 | 0.00 | 0.00 | 31 | 1011.1 |
| 20260503211106 | 72 | 249 | 1.0 | 7.0 | 0.00 | 0.00 | 0.00 | 31 | 1011.2 |
| 20260503210604 | 71 | 303 | 2.0 | 7.0 | 0.00 | 0.00 | 0.00 | 32 | 1011.3 |
| 20260503210105 | 71 | 286 | 2.0 | 6.0 | 0.00 | 0.00 | 0.00 | 32 | 1011.3 |
| 20260503205605 | 71 | 293 | 2.0 | 6.0 | 0.00 | 0.00 | 0.00 | 32 | 1011.4 |
| 20260503205107 | 71 | 275 | 2.0 | 8.0 | 0.00 | 0.00 | 0.00 | 33 | 1011.4 |
| 20260503204602 | 71 | 255 | 2.0 | 8.0 | 0.00 | 0.00 | 0.00 | 33 | 1011.4 |
| 20260503204101 | 71 | 239 | 2.0 | 7.0 | 0.00 | 0.00 | 0.00 | 32 | 1011.5 |
| 20260503203603 | 71 | 268 | 1.0 | 7.0 | 0.00 | 0.00 | 0.00 | 31 | 1011.5 |
| 20260503203101 | 70 | 310 | 1.0 | 7.0 | 0.00 | 0.00 | 0.00 | 32 | 1011.5 |
| 20260503202905 | 70 | 210 | 1.0 | 7.0 | 0.00 | 0.00 | 0.00 | 34 | 1011.7 |
| 20260503202102 | 69 | 285 | 2.0 | 7.0 | 0.00 | 0.00 | 0.00 | 34 | 1011.8 |
| 20260503201601 | 69 | 276 | 2.0 | 6.0 | 0.00 | 0.00 | 0.00 | 33 | 1011.9 |
| 20260503201103 | 69 | 270 | 2.0 | 6.0 | 0.00 | 0.00 | 0.00 | 33 | 1011.9 |
| 20260503200603 | 69 | 255 | 2.0 | 7.0 | 0.00 | 0.00 | 0.00 | 35 | 1012.0 |
| 20260503200101 | 69 | 251 | 2.0 | 7.0 | 0.00 | 0.00 | 0.00 | 34 | 1012.1 |
| 20260503195602 | 69 | 267 | 2.0 | 7.0 | 0.00 | 0.00 | 0.00 | 36 | 1012.2 |
| 20260503195100 | 68 | 272 | 2.0 | 8.0 | 0.00 | 0.00 | 0.00 | 35 | 1012.2 |
| 20260503194721 | 68 | 272 | 2.0 | 8.0 | 0.00 | 0.00 | 0.00 | 35 | 1012.3 |
| 20260503194654 | 68 | 295 | 2.0 | 8.0 | 0.00 | 0.00 | 0.00 | 34 | 1012.3 |
| 20260503193601 | 68 | 263 | 1.0 | 4.0 | 0.00 | 0.00 | 0.00 | 35 | 1012.3 |
| 20260503193102 | 67 | 262 | 1.0 | 3.0 | 0.00 | 0.00 | 0.00 | 34 | 1012.4 |
| 20260503192600 | 67 | 255 | 1.0 | 6.0 | 0.00 | 0.00 | 0.00 | 36 | 1012.5 |
| 20260503192100 | 66 | 261 | 1.0 | 6.0 | 0.00 | 0.00 | 0.00 | 37 | 1012.6 |
| 20260503191603 | 66 | 259 | 1.0 | 4.0 | 0.00 | 0.00 | 0.00 | 38 | 1012.8 |
| 20260503191101 | 66 | 256 | 1.0 | 7.0 | 0.00 | 0.00 | 0.00 | 36 | 1012.9 |
| 20260503190901 | 65 | 262 | 1.0 | 8.0 | 0.00 | 0.00 | 0.00 | 36 | 1012.9 |
| 20260503190101 | 65 | 223 | 1.0 | 8.0 | 0.00 | 0.00 | 0.00 | 39 | 1013.0 |
| 20260503185600 | 64 | 263 | 1.0 | 6.0 | 0.00 | 0.00 | 0.00 | 39 | 1013.2 |
| 20260503185213 | 64 | 266 | 2.0 | 8.0 | 0.00 | 0.00 | 0.00 | 40 | 1013.3 |
| 20260503185149 | 64 | 241 | 2.0 | 7.0 | 0.00 | 0.00 | 0.00 | 39 | 1013.2 |
| 20260503184100 | 63 | 279 | 2.0 | 8.0 | 0.00 | 0.00 | 0.00 | 43 | 1013.4 |
| 20260503183601 | 63 | 298 | 2.0 | 9.0 | 0.00 | 0.00 | 0.00 | 42 | 1013.5 |
| 20260503183102 | 63 | 245 | 2.0 | 9.0 | 0.00 | 0.00 | 0.00 | 42 | 1013.6 |
| 20260503182602 | 63 | 245 | 1.0 | 7.0 | 0.00 | 0.00 | 0.00 | 42 | 1013.8 |
| 20260503182103 | 63 | 291 | 1.0 | 6.0 | 0.00 | 0.00 | 0.00 | 45 | 1013.8 |
| 20260503181603 | 62 | 293 | 2.0 | 6.0 | 0.00 | 0.00 | 0.00 | 45 | 1013.9 |
| 20260503181102 | 61 | 312 | 2.0 | 7.0 | 0.00 | 0.00 | 0.00 | 44 | 1014.2 |
| 20260503180602 | 61 | 270 | 1.0 | 7.0 | 0.00 | 0.00 | 0.00 | 44 | 1014.2 |
| 20260503175601 | 61 | 274 | 1.0 | 6.0 | 0.00 | 0.00 | 0.00 | 44 | 1014.3 |
| 20260503175100 | 60 | 296 | 2.0 | 8.0 | 0.00 | 0.00 | 0.00 | 44 | 1014.3 |
| 20260503174603 | 60 | 262 | 2.0 | 8.0 | 0.00 | 0.00 | 0.00 | 45 | 1014.5 |
| 20260503174102 | 60 | 263 | 2.0 | 8.0 | 0.00 | 0.00 | 0.00 | 45 | 1014.5 |
| 20260503173601 | 60 | 283 | 2.0 | 8.0 | 0.00 | 0.00 | 0.00 | 46 | 1014.3 |
| 20260503173102 | 60 | 262 | 1.0 | 5.0 | 0.00 | 0.00 | 0.00 | 46 | 1014.5 |
| 20260503172603 | 60 | 293 | 2.0 | 5.0 | 0.00 | 0.00 | 0.00 | 46 | 1014.3 |
| 20260503172101 | 60 | 268 | 2.0 | 8.0 | 0.00 | 0.00 | 0.00 | 45 | 1014.3 |
| 20260503171601 | 60 | 290 | 2.0 | 8.0 | 0.00 | 0.00 | 0.00 | 46 | 1014.3 |
| 20260503171100 | 60 | 270 | 2.0 | 7.0 | 0.00 | 0.00 | 0.00 | 45 | 1014.3 |
| 20260503170602 | 60 | 256 | 2.0 | 7.0 | 0.00 | 0.00 | 0.00 | 46 | 1014.5 |
| 20260503160104 | 56 | 251 | 0.0 | 2.0 | 0.00 | 0.00 | 0.00 | 56 | 1015.2 |
| 20260503150602 | 52 | 252 | 0.0 | 0.0 | 0.00 | 0.00 | 0.00 | 59 | 1015.6 |
| 20260503150407 | 51 | 251 | 0.0 | 0.0 | 0.00 | 0.00 | 0.00 | 61 | 1015.7 |
| 20260503131415 | 45 | 251 | 0.0 | 0.0 | 0.00 | 0.00 | 0.00 | 69 | 1015.6 |
| 20260503130313 | 45 | 251 | 0.0 | 0.0 | 0.00 | 0.00 | 0.00 | 69 | 1015.6 |
| 20260503110504 | 48 | 251 | 0.0 | 0.0 | 0.00 | 0.00 | 0.00 | 64 | 1015.8 |
| 20260503090505 | 51 | 251 | 0.0 | 0.0 | 0.00 | 0.00 | 0.00 | 58 | 1015.4 |
| 20260503081504 | 52 | 251 | 0.0 | 0.0 | 0.00 | 0.00 | 0.00 | 55 | 1015.3 |
| 20260503081257 | 52 | 251 | 0.0 | 0.0 | 0.00 | 0.00 | 0.00 | 54 | 1015.3 |
| 20260503080506 | 53 | 251 | 0.0 | 0.0 | 0.00 | 0.00 | 0.00 | 55 | 1015.3 |
| 20260503072506 | 54 | 251 | 0.0 | 0.0 | 0.00 | 0.00 | 0.00 | 53 | 1015.2 |
| 20260503072005 | 54 | 251 | 0.0 | 0.0 | 0.00 | 0.00 | 0.00 | 52 | 1015.2 |
| 20260503071623 | 54 | 251 | 0.0 | 0.0 | 0.00 | 0.00 | 0.00 | 52 | 1015.2 |
| 20260503071346 | 54 | 251 | 0.0 | 0.0 | 0.00 | 0.00 | 0.00 | 51 | 1015.1 |
| 20260503055001 | 57 | 251 | 0.0 | 1.0 | 0.00 | 0.00 | 0.00 | 47 | 1015.0 |
| 20260503054502 | 57 | 251 | 0.0 | 1.0 | 0.00 | 0.00 | 0.00 | 47 | 1015.0 |
| 20260503054003 | 58 | 251 | 0.0 | 0.0 | 0.00 | 0.00 | 0.00 | 47 | 1014.9 |
| 20260503053501 | 58 | 251 | 0.0 | 0.0 | 0.00 | 0.00 | 0.00 | 47 | 1014.8 |
| 20260503053004 | 58 | 251 | 0.0 | 0.0 | 0.00 | 0.00 | 0.00 | 47 | 1014.6 |
| 20260503052502 | 58 | 251 | 0.0 | 0.0 | 0.00 | 0.00 | 0.00 | 47 | 1014.6 |
| 20260503052002 | 58 | 251 | 0.0 | 1.0 | 0.00 | 0.00 | 0.00 | 48 | 1014.5 |
| 20260503051503 | 58 | 251 | 0.0 | 1.0 | 0.00 | 0.00 | 0.00 | 48 | 1014.6 |
| 20260503051000 | 59 | 251 | 0.0 | 0.0 | 0.00 | 0.00 | 0.00 | 47 | 1014.5 |
| 20260503050501 | 59 | 251 | 0.0 | 0.0 | 0.00 | 0.00 | 0.00 | 47 | 1014.3 |
| 20260503050002 | 59 | 251 | 0.0 | 0.0 | 0.00 | 0.00 | 0.00 | 47 | 1014.2 |
| 20260503045500 | 59 | 251 | 0.0 | 0.0 | 0.00 | 0.00 | 0.00 | 48 | 1014.2 |
| 20260503045002 | 60 | 251 | 0.0 | 0.0 | 0.00 | 0.00 | 0.00 | 48 | 1014.1 |
| 20260503044502 | 60 | 251 | 0.0 | 0.0 | 0.00 | 0.00 | 0.00 | 47 | 1014.0 |
| 20260503044000 | 60 | 251 | 0.0 | 0.0 | 0.00 | 0.00 | 0.00 | 47 | 1014.1 |
| 20260503043504 | 60 | 251 | 0.0 | 0.0 | 0.00 | 0.00 | 0.00 | 49 | 1014.0 |
| 20260503043258 | 61 | 251 | 0.0 | 0.0 | 0.00 | 0.00 | 0.00 | 49 | 1013.9 |
| 20260503042501 | 61 | 251 | 0.0 | 0.0 | 0.00 | 0.00 | 0.00 | 49 | 1013.9 |
| 20260503042001 | 61 | 251 | 0.0 | 0.0 | 0.00 | 0.00 | 0.00 | 48 | 1013.8 |
| 20260503041500 | 61 | 251 | 0.0 | 0.0 | 0.00 | 0.00 | 0.00 | 50 | 1013.8 |
| 20260503041006 | 62 | 251 | 0.0 | 0.0 | 0.00 | 0.00 | 0.00 | 49 | 1013.7 |
| 20260503040507 | 62 | 251 | 0.0 | 0.0 | 0.00 | 0.00 | 0.00 | 49 | 1013.7 |
| 20260503040001 | 62 | 251 | 0.0 | 0.0 | 0.00 | 0.00 | 0.00 | 48 | 1013.7 |
| 20260503035502 | 62 | 251 | 0.0 | 0.0 | 0.00 | 0.00 | 0.00 | 47 | 1013.7 |
| 20260503035002 | 62 | 251 | 0.0 | 0.0 | 0.00 | 0.00 | 0.00 | 47 | 1013.6 |
| 20260503034502 | 63 | 251 | 0.0 | 0.0 | 0.00 | 0.00 | 0.00 | 47 | 1013.6 |
| 20260503034004 | 63 | 251 | 0.0 | 0.0 | 0.00 | 0.00 | 0.00 | 46 | 1013.5 |
| 20260503033503 | 63 | 251 | 0.0 | 0.0 | 0.00 | 0.00 | 0.00 | 46 | 1013.4 |
| 20260503033001 | 64 | 251 | 0.0 | 0.0 | 0.00 | 0.00 | 0.00 | 45 | 1013.5 |
| 20260503032502 | 64 | 251 | 0.0 | 0.0 | 0.00 | 0.00 | 0.00 | 45 | 1013.4 |
| 20260503032304 | 65 | 251 | 0.0 | 0.0 | 0.00 | 0.00 | 0.00 | 44 | 1013.3 |
| 20260503031502 | 66 | 251 | 0.0 | 0.0 | 0.00 | 0.00 | 0.00 | 42 | 1013.2 |
| 20260503031300 | 67 | 251 | 0.0 | 0.0 | 0.00 | 0.00 | 0.00 | 40 | 1013.2 |
| 20260503030505 | 67 | 251 | 0.0 | 2.0 | 0.00 | 0.00 | 0.00 | 40 | 1013.1 |
| 20260503030005 | 68 | 251 | 0.0 | 2.0 | 0.00 | 0.00 | 0.00 | 38 | 1013.1 |
| 20260503025503 | 69 | 251 | 0.0 | 0.0 | 0.00 | 0.00 | 0.00 | 38 | 1013.1 |
| 20260503025310 | 69 | 251 | 0.0 | 0.0 | 0.00 | 0.00 | 0.00 | 36 | 1013.1 |
| 20260503024756 | 70 | 251 | 0.0 | 1.0 | 0.00 | 0.00 | 0.00 | 35 | 1013.1 |
| 20260503024007 | 71 | 251 | 0.0 | 1.0 | 0.00 | 0.00 | 0.00 | 33 | 1013.0 |
| 20260503023504 | 71 | 251 | 0.0 | 0.0 | 0.00 | 0.00 | 0.00 | 33 | 1013.0 |
| 20260503023004 | 72 | 251 | 0.0 | 1.0 | 0.00 | 0.00 | 0.00 | 33 | 1012.9 |
| 20260503022507 | 72 | 251 | 0.0 | 1.0 | 0.00 | 0.00 | 0.00 | 31 | 1012.9 |
| 20260503022005 | 72 | 249 | 0.0 | 0.0 | 0.00 | 0.00 | 0.00 | 32 | 1013.0 |
| 20260503021505 | 71 | 249 | 0.0 | 0.0 | 0.00 | 0.00 | 0.00 | 33 | 1012.9 |
| 20260503021004 | 72 | 249 | 0.0 | 0.0 | 0.00 | 0.00 | 0.00 | 33 | 1013.0 |
| 20260503020505 | 72 | 249 | 0.0 | 0.0 | 0.00 | 0.00 | 0.00 | 32 | 1012.9 |
| 20260503020006 | 73 | 248 | 0.0 | 0.0 | 0.00 | 0.00 | 0.00 | 32 | 1012.9 |
| 20260503015506 | 73 | 248 | 0.0 | 0.0 | 0.00 | 0.00 | 0.00 | 32 | 1012.8 |
| 20260503015003 | 74 | 249 | 0.0 | 2.0 | 0.00 | 0.00 | 0.00 | 32 | 1012.9 |
| 20260503014506 | 74 | 249 | 0.0 | 2.0 | 0.00 | 0.00 | 0.00 | 31 | 1012.9 |
| 20260503014257 | 74 | 249 | 0.0 | 2.0 | 0.00 | 0.00 | 0.00 | 31 | 1012.9 |
| 20260503013457 | 74 | 249 | 0.0 | 2.0 | 0.00 | 0.00 | 0.00 | 31 | 1012.9 |
| 20260503012958 | 74 | 249 | 0.0 | 1.0 | 0.00 | 0.00 | 0.00 | 30 | 1013.0 |
| 20260503012458 | 75 | 249 | 0.0 | 2.0 | 0.00 | 0.00 | 0.00 | 29 | 1013.1 |
| 20260503011954 | 75 | 249 | 0.0 | 3.0 | 0.00 | 0.00 | 0.00 | 30 | 1013.0 |
| 20260503011754 | 74 | 249 | 1.0 | 4.0 | 0.00 | 0.00 | 0.00 | 29 | 1013.2 |
| 20260503011000 | 74 | 247 | 1.0 | 4.0 | 0.00 | 0.00 | 0.00 | 29 | 1013.3 |
| 20260503010454 | 74 | 256 | 1.0 | 3.0 | 0.00 | 0.00 | 0.00 | 29 | 1013.2 |
| 20260503005956 | 74 | 256 | 0.0 | 3.0 | 0.00 | 0.00 | 0.00 | 30 | 1013.2 |
| 20260503005453 | 74 | 265 | 0.0 | 2.0 | 0.00 | 0.00 | 0.00 | 30 | 1013.2 |
| 20260503004951 | 73 | 264 | 0.0 | 3.0 | 0.00 | 0.00 | 0.00 | 31 | 1013.2 |
| 20260503004449 | 73 | 260 | 0.0 | 3.0 | 0.00 | 0.00 | 0.00 | 31 | 1013.3 |
| 20260503003949 | 73 | 258 | 0.0 | 2.0 | 0.00 | 0.00 | 0.00 | 31 | 1013.3 |
| 20260503003449 | 74 | 258 | 0.0 | 2.0 | 0.00 | 0.00 | 0.00 | 31 | 1013.2 |
| 20260503002946 | 75 | 258 | 0.0 | 2.0 | 0.00 | 0.00 | 0.00 | 31 | 1013.2 |
| 20260503002748 | 75 | 258 | 0.0 | 2.0 | 0.00 | 0.00 | 0.00 | 30 | 1013.3 |
| 20260503001945 | 76 | 258 | 0.0 | 3.0 | 0.00 | 0.00 | 0.00 | 29 | 1013.3 |
| 20260503001445 | 76 | 258 | 0.0 | 3.0 | 0.00 | 0.00 | 0.00 | 29 | 1013.3 |
| 20260503000945 | 75 | 258 | 0.0 | 3.0 | 0.00 | 0.00 | 0.00 | 31 | 1013.2 |
| 20260503000443 | 75 | 258 | 0.0 | 3.0 | 0.00 | 0.00 | 0.00 | 32 | 1013.4 |
| 20260502235941 | 75 | 258 | 0.0 | 3.0 | 0.00 | 0.00 | 0.00 | 32 | 1013.4 |
| 20260502235443 | 75 | 258 | 0.0 | 3.0 | 0.00 | 0.00 | 0.00 | 32 | 1013.4 |
| 20260502235239 | 75 | 258 | 0.0 | 3.0 | 0.00 | 0.00 | 0.00 | 33 | 1013.5 |
| 20260502234440 | 75 | 262 | 1.0 | 3.0 | 0.00 | 0.00 | 0.00 | 33 | 1013.5 |
| 20260502233940 | 75 | 263 | 1.0 | 3.0 | 0.00 | 0.00 | 0.00 | 33 | 1013.5 |
| 20260502233441 | 75 | 262 | 1.0 | 3.0 | 0.00 | 0.00 | 0.00 | 33 | 1013.6 |
| 20260502232943 | 74 | 260 | 1.0 | 4.0 | 0.00 | 0.00 | 0.00 | 31 | 1013.7 |
| 20260502232441 | 74 | 259 | 1.0 | 4.0 | 0.00 | 0.00 | 0.00 | 30 | 1013.7 |
| 20260502231935 | 74 | 279 | 1.0 | 4.0 | 0.00 | 0.00 | 0.00 | 31 | 1013.8 |
| 20260502231436 | 74 | 278 | 1.0 | 3.0 | 0.00 | 0.00 | 0.00 | 32 | 1013.9 |
| 20260502230935 | 74 | 275 | 1.0 | 4.0 | 0.00 | 0.00 | 0.00 | 32 | 1013.9 |
| 20260502230436 | 74 | 275 | 0.0 | 4.0 | 0.00 | 0.00 | 0.00 | 32 | 1014.0 |
| 20260502225934 | 74 | 266 | 0.0 | 3.0 | 0.00 | 0.00 | 0.00 | 33 | 1014.1 |
| 20260502225432 | 73 | 274 | 1.0 | 7.0 | 0.00 | 0.00 | 0.00 | 34 | 1014.2 |
| 20260502224931 | 73 | 264 | 1.0 | 7.0 | 0.00 | 0.00 | 0.00 | 34 | 1014.3 |
| 20260502224430 | 73 | 273 | 1.0 | 4.0 | 0.00 | 0.00 | 0.00 | 34 | 1014.3 |
| 20260502224229 | 73 | 264 | 1.0 | 4.0 | 0.00 | 0.00 | 0.00 | 33 | 1014.5 |
| 20260502223430 | 73 | 262 | 1.0 | 4.0 | 0.00 | 0.00 | 0.00 | 32 | 1014.5 |
| 20260502222932 | 74 | 274 | 1.0 | 4.0 | 0.00 | 0.00 | 0.00 | 34 | 1014.5 |
| 20260502222724 | 73 | 273 | 1.0 | 5.0 | 0.00 | 0.00 | 0.00 | 36 | 1014.5 |
| 20260502221932 | 73 | 256 | 1.0 | 5.0 | 0.00 | 0.00 | 0.00 | 37 | 1014.6 |
| 20260502221430 | 73 | 276 | 1.0 | 6.0 | 0.00 | 0.00 | 0.00 | 37 | 1014.5 |
| 20260502220930 | 73 | 263 | 1.0 | 6.0 | 0.00 | 0.00 | 0.00 | 37 | 1014.7 |
| 20260502220650 | 73 | 247 | 1.0 | 6.0 | 0.00 | 0.00 | 0.00 | 36 | 1014.7 |
| 20260502215931 | 73 | 291 | 2.0 | 6.0 | 0.00 | 0.00 | 0.00 | 35 | 1014.8 |
| 20260502215429 | 73 | 268 | 1.0 | 6.0 | 0.00 | 0.00 | 0.00 | 35 | 1014.8 |
| 20260502214928 | 72 | 252 | 1.0 | 3.0 | 0.00 | 0.00 | 0.00 | 35 | 1014.8 |
| 20260502214738 | 72 | 251 | 0.0 | 3.0 | 0.00 | 0.00 | 0.00 | 36 | 1015.0 |
| 20260502214228 | 72 | 249 | 1.0 | 4.0 | 0.00 | 0.00 | 0.00 | 37 | 1014.9 |